Time;durP1;ratioP1;P1;durP2;ratioP2;P2;SDS_P1;SDS_P2;PMS_P1;PMS_P2;Temp;Humidity;BMP_temperature;BMP_pressure;BME280_temperature;BME280_humidity;BME280_pressure;Samples;Min_cycle;Max_cycle;Signal;HPM_P1;HPM_P2
2024/04/18 00:00:34;;;;;;;2.47;1.98;;;;;;;;;;5456133;26;20336;-80
2024/04/18 00:03:00;;;;;;;2.10;1.75;;;;;;;;;;5456105;26;20360;-79
2024/04/18 00:05:26;;;;;;;1.50;1.40;;;;;;;;;;5456500;26;20325;-79
2024/04/18 00:07:52;;;;;;;1.48;1.38;;;;;;;;;;5456877;26;20444;-79
2024/04/18 00:10:18;;;;;;;1.25;1.15;;;;;;;;;;5456211;26;20337;-79
2024/04/18 00:12:44;;;;;;;1.33;1.20;;;;;;;;;;5456418;26;20363;-80
2024/04/18 00:15:10;;;;;;;1.27;1.17;;;;;;;;;;5456291;26;20348;-80
2024/04/18 00:17:36;;;;;;;1.05;1.02;;;;;;;;;;5456698;26;20341;-79
2024/04/18 00:20:03;;;;;;;1.08;1.08;;;;;;;;;;5456309;26;20418;-79
2024/04/18 00:22:29;;;;;;;1.88;1.20;;;;;;;;;;5454231;26;20325;-79
2024/04/18 00:24:55;;;;;;;1.30;1.20;;;;;;;;;;5453423;26;20683;-79
2024/04/18 00:27:21;;;;;;;1.30;1.20;;;;;;;;;;5453265;26;20325;-79
2024/04/18 00:29:47;;;;;;;0.82;0.82;;;;;;;;;;5453116;26;20333;-80
2024/04/18 00:32:14;;;;;;;1.52;1.38;;;;;;;;;;5453027;26;20325;-79
2024/04/18 00:34:40;;;;;;;1.65;1.05;;;;;;;;;;5453582;26;20336;-79
2024/04/18 00:37:06;;;;;;;1.42;1.33;;;;;;;;;;5453219;26;20695;-79
2024/04/18 00:39:32;;;;;;;1.40;1.30;;;;;;;;;;5454952;26;20422;-79
2024/04/18 00:41:59;;;;;;;1.45;1.33;;;;;;;;;;5453361;26;20742;-79
2024/04/18 00:44:25;;;;;;;1.50;1.40;;;;;;;;;;5453563;26;20325;-79
2024/04/18 00:46:51;;;;;;;1.40;1.30;;;;;;;;;;5453224;26;20425;-79
2024/04/18 00:49:17;;;;;;;1.40;1.30;;;;;;;;;;5452568;26;20351;-79
2024/04/18 00:51:43;;;;;;;1.30;1.20;;;;;;;;;;5453165;26;20421;-79
2024/04/18 00:54:10;;;;;;;1.52;1.40;;;;;;;;;;5453509;26;20317;-79
2024/04/18 00:56:37;;;;;;;1.83;1.73;;;;;;;;;;5452826;26;20333;-79
2024/04/18 00:59:03;;;;;;;1.63;1.52;;;;;;;;;;5452626;26;20742;-79
2024/04/18 01:01:30;;;;;;;1.55;1.45;;;;;;;;;;5452104;26;21069;-79
2024/04/18 01:03:56;;;;;;;2.10;2.00;;;;;;;;;;5452237;26;20763;-79
2024/04/18 01:06:22;;;;;;;2.40;2.20;;;;;;;;;;5452514;26;20356;-79
2024/04/18 01:08:48;;;;;;;2.20;2.10;;;;;;;;;;5452241;26;20328;-79
2024/04/18 01:11:14;;;;;;;2.42;2.22;;;;;;;;;;5451906;26;20701;-79
2024/04/18 01:13:40;;;;;;;3.03;2.83;;;;;;;;;;5451643;26;20329;-79
2024/04/18 01:16:06;;;;;;;2.80;2.60;;;;;;;;;;5452229;26;20431;-79
2024/04/18 01:18:33;;;;;;;2.90;2.70;;;;;;;;;;5452122;26;20325;-79
2024/04/18 01:20:59;;;;;;;2.83;2.63;;;;;;;;;;5451834;26;20365;-79
2024/04/18 01:23:29;;;;;;;3.10;2.90;;;;;;;;;;5452946;26;20801;-79
2024/04/18 01:25:55;;;;;;;2.95;2.70;;;;;;;;;;5452714;26;20332;-79
2024/04/18 01:28:21;;;;;;;3.03;2.83;;;;;;;;;;5452431;26;20325;-79
2024/04/18 01:30:47;;;;;;;2.95;2.75;;;;;;;;;;5453888;26;20373;-79
2024/04/18 01:33:14;;;;;;;3.00;2.80;;;;;;;;;;5452701;26;20813;-79
2024/04/18 01:35:40;;;;;;;2.92;2.72;;;;;;;;;;5452466;26;20333;-79
2024/04/18 01:38:06;;;;;;;2.90;2.70;;;;;;;;;;5453370;26;20356;-79
2024/04/18 01:40:32;;;;;;;2.90;2.70;;;;;;;;;;5453992;26;20706;-79
2024/04/18 01:42:58;;;;;;;3.15;2.95;;;;;;;;;;5451823;26;20430;-79
2024/04/18 01:45:24;;;;;;;3.45;3.15;;;;;;;;;;5452865;26;20324;-79
2024/04/18 01:47:50;;;;;;;2.97;2.77;;;;;;;;;;5450984;26;21124;-80
2024/04/18 01:50:16;;;;;;;3.40;3.20;;;;;;;;;;5451551;26;20349;-79
2024/04/18 01:52:42;;;;;;;4.30;3.50;;;;;;;;;;5452288;26;20373;-79
2024/04/18 01:55:08;;;;;;;4.00;3.60;;;;;;;;;;5453639;26;20359;-79
2024/04/18 01:57:35;;;;;;;3.50;3.20;;;;;;;;;;5453865;26;20443;-79
2024/04/18 02:00:01;;;;;;;3.40;3.20;;;;;;;;;;5455453;26;20374;-80
2024/04/18 02:02:27;;;;;;;3.20;3.00;;;;;;;;;;5453308;26;20706;-79
2024/04/18 02:04:53;;;;;;;2.67;2.47;;;;;;;;;;5453290;26;20329;-80
2024/04/18 02:07:19;;;;;;;3.00;2.80;;;;;;;;;;5452170;26;20365;-79
2024/04/18 02:09:45;;;;;;;2.53;2.33;;;;;;;;;;5452420;26;20329;-79
2024/04/18 02:12:11;;;;;;;2.90;2.70;;;;;;;;;;5451485;26;20395;-79
2024/04/18 02:14:37;;;;;;;2.70;2.60;;;;;;;;;;5451680;26;20697;-79
2024/04/18 02:17:03;;;;;;;2.80;2.60;;;;;;;;;;5451758;26;20373;-79
2024/04/18 02:19:30;;;;;;;2.40;2.30;;;;;;;;;;5451367;26;20337;-79
2024/04/18 02:21:56;;;;;;;3.10;2.90;;;;;;;;;;5451571;26;20948;-80
2024/04/18 02:24:22;;;;;;;2.90;2.70;;;;;;;;;;5451454;26;20325;-80
2024/04/18 02:26:49;;;;;;;2.97;2.78;;;;;;;;;;5451436;26;20357;-79
2024/04/18 02:29:15;;;;;;;2.80;2.50;;;;;;;;;;5452173;26;20329;-80
2024/04/18 02:31:41;;;;;;;3.13;2.83;;;;;;;;;;5452341;26;21005;-79
2024/04/18 02:34:07;;;;;;;3.03;2.83;;;;;;;;;;5452558;26;20325;-80
2024/04/18 02:36:33;;;;;;;3.20;3.00;;;;;;;;;;5453084;26;20724;-80
2024/04/18 02:38:59;;;;;;;3.20;3.00;;;;;;;;;;5454402;26;20344;-80
2024/04/18 02:41:25;;;;;;;3.13;2.92;;;;;;;;;;5452817;26;20325;-79
2024/04/18 02:43:52;;;;;;;3.58;3.33;;;;;;;;;;5453055;26;20349;-80
2024/04/18 02:46:18;;;;;;;3.53;3.22;;;;;;;;;;5452589;26;20333;-80
2024/04/18 02:48:44;;;;;;;2.92;2.72;;;;;;;;;;5452847;26;20373;-80
2024/04/18 02:51:10;;;;;;;2.72;2.53;;;;;;;;;;5452700;26;20329;-80
2024/04/18 02:53:36;;;;;;;2.45;2.25;;;;;;;;;;5451654;26;20412;-80
2024/04/18 02:56:02;;;;;;;2.40;2.30;;;;;;;;;;5452560;26;20427;-80
2024/04/18 02:58:28;;;;;;;2.00;1.80;;;;;;;;;;5452436;26;20817;-79
2024/04/18 03:00:54;;;;;;;2.40;2.20;;;;;;;;;;5452826;26;20330;-80
2024/04/18 03:03:20;;;;;;;1.90;1.80;;;;;;;;;;5452498;26;20938;-79
2024/04/18 03:05:46;;;;;;;2.10;2.00;;;;;;;;;;5452994;26;20362;-80
2024/04/18 03:08:12;;;;;;;1.73;1.63;;;;;;;;;;5452344;26;20333;-80
2024/04/18 03:10:47;;;;;;;2.03;1.93;;;;;;;;;;5451672;26;20893;-79
2024/04/18 03:13:13;;;;;;;2.00;1.90;;;;;;;;;;5451130;26;20813;-79
2024/04/18 03:15:43;;;;;;;1.75;1.65;;;;;;;;;;5452279;26;20423;-80
2024/04/18 03:18:09;;;;;;;1.90;1.80;;;;;;;;;;5452030;26;20336;-80
2024/04/18 03:20:36;;;;;;;2.20;2.00;;;;;;;;;;5451809;26;20381;-80
2024/04/18 03:23:02;;;;;;;2.00;1.90;;;;;;;;;;5452224;26;20348;-79
2024/04/18 03:25:28;;;;;;;1.70;1.60;;;;;;;;;;5456447;26;20666;-79
2024/04/18 03:27:54;;;;;;;1.90;1.70;;;;;;;;;;5455883;26;20363;-79
2024/04/18 03:30:21;;;;;;;1.77;1.67;;;;;;;;;;5455189;26;20892;-79
2024/04/18 03:32:47;;;;;;;2.13;1.60;;;;;;;;;;5454805;26;20361;-79
2024/04/18 03:35:13;;;;;;;1.70;1.60;;;;;;;;;;5454858;26;20332;-79
2024/04/18 03:37:38;;;;;;;1.63;1.52;;;;;;;;;;5455685;26;20805;-79
2024/04/18 03:40:05;;;;;;;1.50;1.40;;;;;;;;;;5453647;26;20348;-80
2024/04/18 03:42:31;;;;;;;1.48;1.10;;;;;;;;;;5454330;26;20412;-79
2024/04/18 03:44:59;;;;;;;4.13;3.83;;;;;;;;;;5454514;26;20873;-79
2024/04/18 03:47:25;;;;;;;2.50;2.30;;;;;;;;;;5453943;26;20775;-80
2024/04/18 03:49:51;;;;;;;2.20;1.88;;;;;;;;;;5453896;26;20356;-80
2024/04/18 03:52:17;;;;;;;1.70;1.60;;;;;;;;;;5454156;26;20336;-80
2024/04/18 03:54:43;;;;;;;1.63;1.52;;;;;;;;;;5454074;26;20714;-80
2024/04/18 03:57:09;;;;;;;1.40;1.30;;;;;;;;;;5454344;26;20329;-80
2024/04/18 03:59:35;;;;;;;1.35;1.25;;;;;;;;;;5455893;26;20927;-80
2024/04/18 04:02:01;;;;;;;2.00;1.57;;;;;;;;;;5452758;26;20329;-80
2024/04/18 04:04:27;;;;;;;1.75;1.63;;;;;;;;;;5455627;26;20365;-80
2024/04/18 04:06:53;;;;;;;1.52;1.42;;;;;;;;;;5452861;26;20349;-80
2024/04/18 04:09:19;;;;;;;1.70;1.60;;;;;;;;;;5455714;26;20368;-80
2024/04/18 04:11:46;;;;;;;1.55;1.45;;;;;;;;;;5454588;26;20369;-80
2024/04/18 04:14:12;;;;;;;1.92;1.77;;;;;;;;;;5454261;26;20423;-80
2024/04/18 04:16:38;;;;;;;1.80;1.70;;;;;;;;;;5454556;26;20325;-80
2024/04/18 04:19:04;;;;;;;5.00;4.65;;;;;;;;;;5454161;26;20334;-80
2024/04/18 04:21:31;;;;;;;2.63;2.47;;;;;;;;;;5454268;26;20448;-80
2024/04/18 04:23:57;;;;;;;1.60;1.50;;;;;;;;;;5454821;26;20329;-80
2024/04/18 04:26:23;;;;;;;1.90;1.63;;;;;;;;;;5454297;26;20365;-80
2024/04/18 04:28:49;;;;;;;1.83;1.73;;;;;;;;;;5454208;26;20344;-80
2024/04/18 04:31:14;;;;;;;1.80;1.70;;;;;;;;;;5455082;26;20341;-80
2024/04/18 04:33:41;;;;;;;1.75;1.65;;;;;;;;;;5454276;26;20376;-80
2024/04/18 04:36:07;;;;;;;1.67;1.57;;;;;;;;;;5454073;26;20396;-80
2024/04/18 04:38:33;;;;;;;1.63;1.50;;;;;;;;;;5454263;26;20329;-80
2024/04/18 04:40:59;;;;;;;1.75;1.65;;;;;;;;;;5453775;26;20385;-80
2024/04/18 04:43:25;;;;;;;1.60;1.50;;;;;;;;;;5454025;26;20416;-80
2024/04/18 04:45:54;;;;;;;2.10;1.67;;;;;;;;;;5453843;26;20857;-80
2024/04/18 04:48:20;;;;;;;1.77;1.67;;;;;;;;;;5454777;26;20438;-80
2024/04/18 04:50:58;;;;;;;2.05;1.88;;;;;;;;;;5454254;26;20337;-80
2024/04/18 04:53:24;;;;;;;2.03;1.60;;;;;;;;;;5454101;26;20333;-80
2024/04/18 04:55:50;;;;;;;2.30;2.10;;;;;;;;;;5454482;26;20559;-80
2024/04/18 04:58:15;;;;;;;2.80;2.50;;;;;;;;;;5423106;26;20333;-80
2024/04/18 05:00:41;;;;;;;2.30;2.10;;;;;;;;;;5454974;26;20369;-80
2024/04/18 05:03:07;;;;;;;2.30;2.10;;;;;;;;;;5457036;26;20336;-80
2024/04/18 05:05:33;;;;;;;2.53;2.33;;;;;;;;;;5457132;26;20329;-80
2024/04/18 05:07:59;;;;;;;2.10;2.00;;;;;;;;;;5456429;26;20349;-80
2024/04/18 05:10:26;;;;;;;2.40;2.20;;;;;;;;;;5455823;26;20333;-80
2024/04/18 05:12:52;;;;;;;2.55;2.38;;;;;;;;;;5455436;26;20337;-80
2024/04/18 05:15:18;;;;;;;2.35;2.15;;;;;;;;;;5456112;26;20403;-80
2024/04/18 05:17:44;;;;;;;2.08;1.98;;;;;;;;;;5457290;26;20434;-80
2024/04/18 05:20:10;;;;;;;2.40;2.20;;;;;;;;;;5457137;26;20464;-80
2024/04/18 05:22:36;;;;;;;2.00;1.90;;;;;;;;;;5455785;26;20333;-80
2024/04/18 05:25:02;;;;;;;2.70;2.50;;;;;;;;;;5453173;26;20362;-80
2024/04/18 05:27:28;;;;;;;2.38;2.20;;;;;;;;;;5453734;26;20364;-80
2024/04/18 05:32:38;;;;;;;2.60;2.40;;;;;;;;;;5453510;26;20364;-80
2024/04/18 05:35:04;;;;;;;2.70;2.50;;;;;;;;;;5454192;26;20329;-80
2024/04/18 05:37:30;;;;;;;2.50;2.40;;;;;;;;;;5454041;26;20427;-80
2024/04/18 05:39:56;;;;;;;2.70;2.53;;;;;;;;;;5454168;26;20340;-80
2024/04/18 05:42:22;;;;;;;2.92;2.40;;;;;;;;;;5453921;26;20349;-80
2024/04/18 05:44:48;;;;;;;2.58;2.38;;;;;;;;;;5453710;26;20325;-80
2024/04/18 05:47:14;;;;;;;3.03;2.83;;;;;;;;;;5452338;26;20921;-80
2024/04/18 05:49:40;;;;;;;4.43;4.03;;;;;;;;;;5456249;26;20344;-80
2024/04/18 05:52:06;;;;;;;3.17;2.75;;;;;;;;;;5455405;26;20689;-79
2024/04/18 05:54:32;;;;;;;3.10;2.70;;;;;;;;;;5455862;26;20480;-80
2024/04/18 05:57:01;;;;;;;2.83;2.63;;;;;;;;;;5455762;26;20357;-79
2024/04/18 05:59:27;;;;;;;2.70;2.50;;;;;;;;;;5454089;26;20356;-80
2024/04/18 06:01:53;;;;;;;2.42;2.33;;;;;;;;;;5453824;26;20365;-80
2024/04/18 06:04:19;;;;;;;2.50;2.30;;;;;;;;;;5454368;26;20328;-80
2024/04/18 06:06:45;;;;;;;3.00;2.70;;;;;;;;;;5454369;26;20348;-80
2024/04/18 06:09:11;;;;;;;4.03;3.17;;;;;;;;;;5454125;26;20384;-80
2024/04/18 06:11:42;;;;;;;2.75;2.40;;;;;;;;;;5453879;26;20329;-80
2024/04/18 06:14:08;;;;;;;3.85;3.55;;;;;;;;;;5453059;26;20364;-80
2024/04/18 06:16:34;;;;;;;2.65;2.45;;;;;;;;;;5453422;26;20317;-80
2024/04/18 06:19:00;;;;;;;2.70;2.50;;;;;;;;;;5455443;26;20332;-80
2024/04/18 06:21:26;;;;;;;3.78;2.22;;;;;;;;;;5454830;26;20324;-80
2024/04/18 06:23:52;;;;;;;2.30;2.20;;;;;;;;;;5454888;26;20698;-79
2024/04/18 06:26:18;;;;;;;2.58;2.38;;;;;;;;;;5455130;26;20421;-80
2024/04/18 06:28:45;;;;;;;2.90;2.70;;;;;;;;;;5453790;26;20377;-80
2024/04/18 06:31:13;;;;;;;2.70;2.50;;;;;;;;;;5454033;26;20689;-80
2024/04/18 06:33:39;;;;;;;2.35;2.15;;;;;;;;;;5453869;26;20368;-79
2024/04/18 06:36:05;;;;;;;2.45;2.25;;;;;;;;;;5453780;26;20369;-79
2024/04/18 06:38:31;;;;;;;2.55;2.35;;;;;;;;;;5455236;26;20337;-79
2024/04/18 06:40:57;;;;;;;2.63;2.10;;;;;;;;;;5453991;26;20329;-80
2024/04/18 06:43:23;;;;;;;2.80;2.40;;;;;;;;;;5453932;26;20369;-79
2024/04/18 06:45:49;;;;;;;2.50;2.30;;;;;;;;;;5454416;26;20360;-79
2024/04/18 06:48:15;;;;;;;2.40;2.20;;;;;;;;;;5452833;26;20325;-79
2024/04/18 06:50:42;;;;;;;2.67;2.47;;;;;;;;;;5453924;26;20376;-80
2024/04/18 06:53:08;;;;;;;2.88;2.67;;;;;;;;;;5454221;26;20402;-79
2024/04/18 06:55:34;;;;;;;2.87;2.67;;;;;;;;;;5454092;26;20325;-79
2024/04/18 06:58:00;;;;;;;2.90;2.70;;;;;;;;;;5455171;26;20422;-79
2024/04/18 07:00:27;;;;;;;3.17;2.97;;;;;;;;;;5456972;26;20371;-79
2024/04/18 07:02:53;;;;;;;3.25;2.95;;;;;;;;;;5456605;26;20325;-79
2024/04/18 07:05:19;;;;;;;3.10;2.80;;;;;;;;;;5456596;26;20321;-79
2024/04/18 07:07:45;;;;;;;3.05;2.85;;;;;;;;;;5456644;26;20325;-79
2024/04/18 07:10:11;;;;;;;2.60;2.40;;;;;;;;;;5456613;26;20325;-80
2024/04/18 07:12:37;;;;;;;2.63;2.42;;;;;;;;;;5456679;26;20353;-80
2024/04/18 07:15:03;;;;;;;2.70;2.50;;;;;;;;;;5456762;26;20325;-80
2024/04/18 07:17:29;;;;;;;3.13;2.83;;;;;;;;;;5455924;26;20359;-80
2024/04/18 07:19:55;;;;;;;2.77;2.57;;;;;;;;;;5456304;26;20700;-80
2024/04/18 07:22:21;;;;;;;2.80;2.60;;;;;;;;;;5456638;26;20321;-80
2024/04/18 07:24:49;;;;;;;2.80;2.60;;;;;;;;;;5455734;26;20337;-80
2024/04/18 07:27:15;;;;;;;2.80;2.60;;;;;;;;;;5455735;26;20411;-80
2024/04/18 07:29:41;;;;;;;3.42;3.13;;;;;;;;;;5455324;26;20746;-80
2024/04/18 07:32:07;;;;;;;3.92;3.55;;;;;;;;;;5455351;26;20334;-80
2024/04/18 07:34:33;;;;;;;3.97;3.22;;;;;;;;;;5456101;26;20343;-80
2024/04/18 07:36:59;;;;;;;3.58;3.28;;;;;;;;;;5455299;26;20329;-79
2024/04/18 07:39:26;;;;;;;4.03;3.33;;;;;;;;;;5455180;26;20340;-80
2024/04/18 07:41:52;;;;;;;2.63;2.42;;;;;;;;;;5456062;26;20392;-79
2024/04/18 07:44:18;;;;;;;2.70;2.50;;;;;;;;;;5456789;26;20430;-79
2024/04/18 07:46:44;;;;;;;2.47;2.27;;;;;;;;;;5456950;26;20434;-79
2024/04/18 07:49:13;;;;;;;3.90;3.50;;;;;;;;;;5455745;26;20321;-79
2024/04/18 07:51:40;;;;;;;3.37;3.10;;;;;;;;;;5455825;26;20381;-79
2024/04/18 07:54:06;;;;;;;3.72;3.42;;;;;;;;;;5455793;26;20419;-79
2024/04/18 07:56:32;;;;;;;3.55;3.25;;;;;;;;;;5456263;26;20411;-79
2024/04/18 07:58:58;;;;;;;2.72;2.28;;;;;;;;;;5455227;26;20666;-79
2024/04/18 08:01:24;;;;;;;3.17;2.60;;;;;;;;;;5453865;26;20320;-79
2024/04/18 08:03:50;;;;;;;2.20;1.98;;;;;;;;;;5453288;26;20696;-79
2024/04/18 08:06:16;;;;;;;2.90;1.88;;;;;;;;;;5452875;26;20337;-79
2024/04/18 08:08:42;;;;;;;2.05;1.80;;;;;;;;;;5452320;26;20984;-79
2024/04/18 08:11:09;;;;;;;1.67;1.57;;;;;;;;;;5451527;26;20362;-79
2024/04/18 08:13:38;;;;;;;1.75;1.65;;;;;;;;;;5421080;26;20357;-79
2024/04/18 08:16:04;;;;;;;1.95;1.85;;;;;;;;;;5452970;26;20324;-79
2024/04/18 08:18:30;;;;;;;1.83;1.73;;;;;;;;;;5452601;26;20321;-79
2024/04/18 08:20:59;;;;;;;2.15;1.95;;;;;;;;;;5453559;26;20361;-79
2024/04/18 08:23:26;;;;;;;2.45;2.25;;;;;;;;;;5420519;26;20336;-79
2024/04/18 08:25:52;;;;;;;2.40;2.20;;;;;;;;;;5452715;26;20328;-79
2024/04/18 08:28:18;;;;;;;1.67;1.58;;;;;;;;;;5452851;26;20868;-79
2024/04/18 08:30:46;;;;;;;1.77;1.67;;;;;;;;;;5454822;26;20361;-80
2024/04/18 08:33:12;;;;;;;2.72;1.92;;;;;;;;;;5453195;26;20836;-79
2024/04/18 08:35:39;;;;;;;1.60;1.50;;;;;;;;;;5452502;26;20442;-79
2024/04/18 08:38:08;;;;;;;1.50;1.30;;;;;;;;;;5453187;26;20364;-79
2024/04/18 08:40:34;;;;;;;1.35;1.25;;;;;;;;;;5453021;26;20646;-79
2024/04/18 08:43:00;;;;;;;1.00;0.90;;;;;;;;;;5454084;26;20402;-79
2024/04/18 08:45:26;;;;;;;1.05;1.00;;;;;;;;;;5452940;26;20673;-79
2024/04/18 08:47:52;;;;;;;1.50;0.90;;;;;;;;;;5453062;26;20459;-79
2024/04/18 08:50:20;;;;;;;1.35;1.25;;;;;;;;;;5453139;26;20467;-79
2024/04/18 08:52:46;;;;;;;1.30;1.20;;;;;;;;;;5453344;26;20374;-79
2024/04/18 08:55:12;;;;;;;1.40;1.30;;;;;;;;;;5454351;26;20431;-79
2024/04/18 08:57:48;;;;;;;1.40;1.30;;;;;;;;;;5454187;26;20333;-79
2024/04/18 09:00:14;;;;;;;1.90;1.80;;;;;;;;;;5453788;26;20825;-79
2024/04/18 09:02:41;;;;;;;1.40;1.30;;;;;;;;;;5453580;26;20325;-79
2024/04/18 09:05:08;;;;;;;1.75;1.60;;;;;;;;;;5454665;26;20337;-79
2024/04/18 09:07:34;;;;;;;1.50;1.40;;;;;;;;;;5454841;26;20373;-79
2024/04/18 09:10:07;;;;;;;1.52;1.42;;;;;;;;;;5453962;26;20337;-78
2024/04/18 09:12:34;;;;;;;1.60;1.50;;;;;;;;;;5454168;26;20811;-79
2024/04/18 09:15:00;;;;;;;1.80;1.70;;;;;;;;;;5453478;26;20329;-79
2024/04/18 09:17:27;;;;;;;1.80;1.70;;;;;;;;;;5453020;26;20375;-79
2024/04/18 09:19:53;;;;;;;1.40;1.30;;;;;;;;;;5453544;26;20369;-79
2024/04/18 09:22:19;;;;;;;1.00;1.00;;;;;;;;;;5452198;26;20759;-79
2024/04/18 09:24:45;;;;;;;1.05;1.00;;;;;;;;;;5453658;26;20325;-79
2024/04/18 09:27:12;;;;;;;1.02;1.00;;;;;;;;;;5453094;26;20365;-79
2024/04/18 09:29:38;;;;;;;1.10;0.90;;;;;;;;;;5453267;26;20336;-79
2024/04/18 09:32:05;;;;;;;1.00;1.00;;;;;;;;;;5453460;26;20368;-79
2024/04/18 09:34:32;;;;;;;0.80;0.80;;;;;;;;;;5453122;26;20333;-79
2024/04/18 09:37:02;;;;;;;0.90;0.90;;;;;;;;;;5453748;26;20837;-79
2024/04/18 09:39:28;;;;;;;0.73;0.73;;;;;;;;;;5453730;26;20345;-79
2024/04/18 09:42:01;;;;;;;1.25;1.00;;;;;;;;;;5452401;26;20825;-79
2024/04/18 09:44:29;;;;;;;0.80;0.80;;;;;;;;;;5452746;26;20372;-79
2024/04/18 09:46:56;;;;;;;0.70;0.70;;;;;;;;;;5452803;26;20341;-79
2024/04/18 09:49:22;;;;;;;0.80;0.80;;;;;;;;;;5452863;26;20455;-79
2024/04/18 09:51:49;;;;;;;1.38;0.80;;;;;;;;;;5452224;26;20321;-79
2024/04/18 09:54:16;;;;;;;0.93;0.70;;;;;;;;;;5421094;26;20380;-79
2024/04/18 09:56:45;;;;;;;0.47;0.47;;;;;;;;;;5452647;26;20336;-78
2024/04/18 09:59:12;;;;;;;0.45;0.43;;;;;;;;;;5453421;26;20373;-78
2024/04/18 10:01:39;;;;;;;1.00;0.60;;;;;;;;;;5452754;26;20337;-78
2024/04/18 10:04:05;;;;;;;1.20;0.60;;;;;;;;;;5452739;26;20368;-78
2024/04/18 10:06:35;;;;;;;1.75;0.70;;;;;;;;;;5452483;26;20333;-78
2024/04/18 10:09:01;;;;;;;0.95;0.60;;;;;;;;;;5451982;26;20341;-78
2024/04/18 10:11:28;;;;;;;0.70;0.70;;;;;;;;;;5452178;26;20673;-78
2024/04/18 10:13:59;;;;;;;0.68;0.60;;;;;;;;;;5452287;26;20341;-78
2024/04/18 10:16:25;;;;;;;1.13;0.80;;;;;;;;;;5451721;26;20354;-78
2024/04/18 10:18:51;;;;;;;0.63;0.63;;;;;;;;;;5453444;26;20360;-78
2024/04/18 10:21:25;;;;;;;0.75;0.60;;;;;;;;;;5452559;26;20670;-78
2024/04/18 10:23:52;;;;;;;0.63;0.50;;;;;;;;;;5453017;26;20397;-78
2024/04/18 10:26:18;;;;;;;0.63;0.60;;;;;;;;;;5453234;26;20732;-79
2024/04/18 10:28:45;;;;;;;0.60;0.60;;;;;;;;;;5452280;26;20359;-78
2024/04/18 10:31:11;;;;;;;1.30;0.70;;;;;;;;;;5453688;26;20333;-79
2024/04/18 10:33:39;;;;;;;1.13;0.70;;;;;;;;;;5453222;26;20416;-78
2024/04/18 10:36:14;;;;;;;0.70;0.70;;;;;;;;;;5453724;26;20333;-79
2024/04/18 10:38:47;;;;;;;1.10;0.60;;;;;;;;;;5452784;26;20464;-78
2024/04/18 10:41:14;;;;;;;0.88;0.68;;;;;;;;;;5452716;26;21248;-78
2024/04/18 10:43:42;;;;;;;0.50;0.50;;;;;;;;;;5414224;26;20405;-78
2024/04/18 10:46:09;;;;;;;0.80;0.73;;;;;;;;;;5415874;26;20335;-78
2024/04/18 10:48:36;;;;;;;1.02;0.93;;;;;;;;;;5416556;26;20395;-78
2024/04/18 10:51:03;;;;;;;0.82;0.80;;;;;;;;;;5415491;26;20340;-78
2024/04/18 10:53:29;;;;;;;1.70;1.02;;;;;;;;;;5415793;26;20676;-78
2024/04/18 10:55:55;;;;;;;0.95;0.85;;;;;;;;;;5415922;26;20353;-79
2024/04/18 10:58:21;;;;;;;0.98;0.88;;;;;;;;;;5415830;26;20918;-78
2024/04/18 11:00:47;;;;;;;0.82;0.82;;;;;;;;;;5415630;26;20367;-78
2024/04/18 11:03:13;;;;;;;1.10;1.00;;;;;;;;;;5416311;26;20336;-78
2024/04/18 11:05:40;;;;;;;0.90;0.80;;;;;;;;;;5417050;26;20553;-79
2024/04/18 11:08:07;;;;;;;1.58;1.10;;;;;;;;;;5417439;26;20343;-78
2024/04/18 11:10:34;;;;;;;1.10;1.00;;;;;;;;;;5417811;26;20373;-79
2024/04/18 11:13:01;;;;;;;1.10;1.00;;;;;;;;;;5417785;26;20364;-79
2024/04/18 11:15:28;;;;;;;0.98;0.95;;;;;;;;;;5417588;26;20824;-79
2024/04/18 11:17:54;;;;;;;1.60;1.00;;;;;;;;;;5387171;26;20331;-79
2024/04/18 11:20:20;;;;;;;0.80;0.80;;;;;;;;;;5417351;26;20375;-79
2024/04/18 11:22:46;;;;;;;2.47;1.50;;;;;;;;;;5418402;26;20327;-79
2024/04/18 11:25:12;;;;;;;1.95;1.30;;;;;;;;;;5418148;26;20327;-79
2024/04/18 11:27:41;;;;;;;1.00;0.90;;;;;;;;;;5418992;26;20324;-79
2024/04/18 11:30:14;;;;;;;1.45;1.35;;;;;;;;;;5418462;26;20339;-79
2024/04/18 11:32:40;;;;;;;1.20;1.10;;;;;;;;;;5418108;26;20343;-79
2024/04/18 11:35:06;;;;;;;1.65;1.15;;;;;;;;;;5416799;26;20868;-78
2024/04/18 11:37:38;;;;;;;0.90;0.90;;;;;;;;;;5416293;26;20844;-78
2024/04/18 11:40:09;;;;;;;0.98;0.90;;;;;;;;;;5416044;26;20375;-78
2024/04/18 11:42:35;;;;;;;1.33;1.08;;;;;;;;;;5416358;26;20351;-79
2024/04/18 11:45:01;;;;;;;1.00;0.80;;;;;;;;;;5417867;26;20426;-78
2024/04/18 11:47:27;;;;;;;0.75;0.75;;;;;;;;;;5420703;26;20351;-79
2024/04/18 11:49:53;;;;;;;1.50;1.10;;;;;;;;;;5421271;26;20339;-79
2024/04/18 11:52:19;;;;;;;1.13;1.00;;;;;;;;;;5420449;26;20371;-78
2024/04/18 11:54:45;;;;;;;2.35;1.10;;;;;;;;;;5421556;26;20324;-79
2024/04/18 11:57:11;;;;;;;1.27;1.10;;;;;;;;;;5420871;26;20368;-79
2024/04/18 11:59:39;;;;;;;1.20;1.10;;;;;;;;;;5421134;26;20958;-79
2024/04/18 12:02:06;;;;;;;0.82;0.82;;;;;;;;;;5421283;26;20331;-79
2024/04/18 12:04:32;;;;;;;1.00;1.00;;;;;;;;;;5421731;26;20398;-79
2024/04/18 12:06:58;;;;;;;1.33;1.23;;;;;;;;;;5420855;26;20375;-79
2024/04/18 12:09:24;;;;;;;1.40;1.30;;;;;;;;;;5421091;26;20684;-79
2024/04/18 12:11:50;;;;;;;1.00;0.90;;;;;;;;;;5420989;26;20429;-79
2024/04/18 12:14:16;;;;;;;1.60;1.10;;;;;;;;;;5420678;26;20332;-79
2024/04/18 12:16:42;;;;;;;1.15;1.02;;;;;;;;;;5420007;26;20343;-79
2024/04/18 12:19:08;;;;;;;1.40;1.30;;;;;;;;;;5420598;26;20345;-80
2024/04/18 12:21:34;;;;;;;3.45;2.50;;;;;;;;;;5419633;26;20669;-79
2024/04/18 12:24:00;;;;;;;6.05;2.35;;;;;;;;;;5419876;26;20423;-79
2024/04/18 12:26:26;;;;;;;2.90;2.20;;;;;;;;;;5419589;26;20680;-79
2024/04/18 12:28:52;;;;;;;1.50;1.40;;;;;;;;;;5420127;26;20906;-79
2024/04/18 12:31:18;;;;;;;1.90;1.70;;;;;;;;;;5419681;26;20712;-79
2024/04/18 12:33:44;;;;;;;1.85;1.70;;;;;;;;;;5419136;26;20331;-79
2024/04/18 12:36:13;;;;;;;1.50;1.40;;;;;;;;;;5420667;26;20377;-79
2024/04/18 12:38:39;;;;;;;1.40;1.30;;;;;;;;;;5420607;26;20800;-79
2024/04/18 12:41:04;;;;;;;1.63;1.38;;;;;;;;;;5419553;26;20360;-79
2024/04/18 12:43:30;;;;;;;1.63;1.52;;;;;;;;;;5419048;26;20368;-79
2024/04/18 12:46:00;;;;;;;1.27;1.17;;;;;;;;;;5418835;26;20372;-79
2024/04/18 12:48:26;;;;;;;1.50;1.40;;;;;;;;;;5418381;26;20482;-78
2024/04/18 12:50:52;;;;;;;1.73;1.63;;;;;;;;;;5419129;26;20417;-78
2024/04/18 12:53:18;;;;;;;1.92;1.55;;;;;;;;;;5418718;26;20339;-79
2024/04/18 12:55:44;;;;;;;4.28;2.53;;;;;;;;;;5419842;26;20327;-79
2024/04/18 12:58:10;;;;;;;2.25;2.05;;;;;;;;;;5419471;26;20750;-79
2024/04/18 13:00:36;;;;;;;2.08;1.92;;;;;;;;;;5420064;26;20339;-79
2024/04/18 13:03:02;;;;;;;1.88;1.77;;;;;;;;;;5419400;26;20339;-79
2024/04/18 13:05:28;;;;;;;1.80;1.70;;;;;;;;;;5420373;26;20775;-80
2024/04/18 13:07:54;;;;;;;1.73;1.63;;;;;;;;;;5420634;26;20327;-79
2024/04/18 13:10:20;;;;;;;1.60;1.50;;;;;;;;;;5419660;26;20323;-79
2024/04/18 13:12:46;;;;;;;1.40;1.27;;;;;;;;;;5420292;26;20324;-79
2024/04/18 13:15:12;;;;;;;2.17;1.67;;;;;;;;;;5420129;26;20328;-79
2024/04/18 13:17:38;;;;;;;1.60;1.50;;;;;;;;;;5418931;26;20473;-79
2024/04/18 13:20:04;;;;;;;1.35;1.25;;;;;;;;;;5417635;26;20377;-79
2024/04/18 13:22:30;;;;;;;1.52;1.42;;;;;;;;;;5418116;26;20372;-79
2024/04/18 13:24:56;;;;;;;1.42;1.20;;;;;;;;;;5420088;26;20332;-79
2024/04/18 13:27:23;;;;;;;1.30;1.20;;;;;;;;;;5419741;26;20824;-79
2024/04/18 13:29:49;;;;;;;1.25;1.15;;;;;;;;;;5419265;26;20343;-79
2024/04/18 13:32:15;;;;;;;2.00;1.33;;;;;;;;;;5418264;26;20339;-79
2024/04/18 13:34:41;;;;;;;1.45;1.35;;;;;;;;;;5418231;26;20328;-80
2024/04/18 13:37:07;;;;;;;1.48;1.30;;;;;;;;;;5418484;26;20331;-80
2024/04/18 13:39:33;;;;;;;1.48;1.33;;;;;;;;;;5416506;26;20827;-81
2024/04/18 13:41:59;;;;;;;2.40;1.43;;;;;;;;;;5416868;26;20328;-81
2024/04/18 13:44:25;;;;;;;2.25;1.60;;;;;;;;;;5415159;26;20332;-81
2024/04/18 13:46:51;;;;;;;1.40;1.30;;;;;;;;;;5415796;26;20339;-80
2024/04/18 13:49:17;;;;;;;1.60;1.50;;;;;;;;;;5414661;26;20375;-81
2024/04/18 13:51:43;;;;;;;1.80;1.70;;;;;;;;;;5418851;26;20703;-81
2024/04/18 13:54:09;;;;;;;1.80;1.70;;;;;;;;;;5419676;26;20382;-81
2024/04/18 13:56:35;;;;;;;1.50;1.40;;;;;;;;;;5419142;26;20340;-81
2024/04/18 13:59:01;;;;;;;2.58;1.75;;;;;;;;;;5419741;26;20906;-81
2024/04/18 14:01:27;;;;;;;1.90;1.70;;;;;;;;;;5419437;26;20406;-81
2024/04/18 14:03:53;;;;;;;2.00;1.80;;;;;;;;;;5419035;26;20777;-81
2024/04/18 14:06:19;;;;;;;2.10;1.90;;;;;;;;;;5418955;26;20385;-81
2024/04/18 14:08:45;;;;;;;3.00;2.70;;;;;;;;;;5419184;26;20323;-80
2024/04/18 14:11:11;;;;;;;3.75;2.75;;;;;;;;;;5419712;26;20413;-81
2024/04/18 14:13:37;;;;;;;2.30;2.10;;;;;;;;;;5419368;26;20437;-81
2024/04/18 14:18:48;;;;;;;2.03;1.92;;;;;;;;;;5419180;26;20372;-80
2024/04/18 14:21:14;;;;;;;1.90;1.80;;;;;;;;;;5419698;26;20351;-80
2024/04/18 14:23:40;;;;;;;1.77;1.67;;;;;;;;;;5418716;26;20380;-80
2024/04/18 14:26:07;;;;;;;2.13;2.03;;;;;;;;;;5417578;26;20335;-81
2024/04/18 14:28:33;;;;;;;2.38;2.17;;;;;;;;;;5419066;26;20335;-80
2024/04/18 14:30:59;;;;;;;2.72;2.53;;;;;;;;;;5419011;26;20446;-80
2024/04/18 14:33:25;;;;;;;3.00;2.70;;;;;;;;;;5418912;26;20324;-80
2024/04/18 14:35:51;;;;;;;3.08;2.88;;;;;;;;;;5418958;26;20331;-80
2024/04/18 14:38:17;;;;;;;2.80;2.60;;;;;;;;;;5418977;26;20485;-80
2024/04/18 14:40:43;;;;;;;2.97;2.78;;;;;;;;;;5387333;26;20379;-80
2024/04/18 14:43:09;;;;;;;3.10;2.90;;;;;;;;;;5419053;26;20426;-80